Time;durP1;ratioP1;P1;durP2;ratioP2;P2;SDS_P1;SDS_P2;PMS_P1;PMS_P2;Temp;Humidity;BMP_temperature;BMP_pressure;BME280_temperature;BME280_humidity;BME280_pressure;Samples;Min_cycle;Max_cycle;Signal;HPM_P1;HPM_P2
2024/04/15 00:02:16;;;;;;;1.00;0.10;;;11.30;69.70;;;;;;5381324;26;20065;-78
2024/04/15 00:04:44;;;;;;;2.63;0.10;;;11.20;69.90;;;;;;5381430;26;20076;-77
2024/04/15 00:07:11;;;;;;;1.40;0.28;;;11.20;70.00;;;;;;5382799;26;20012;-78
2024/04/15 00:09:38;;;;;;;1.52;0.15;;;11.20;70.30;;;;;;5351994;26;20011;-78
2024/04/15 00:12:08;;;;;;;0.82;0.10;;;11.10;70.40;;;;;;5381143;26;20077;-78
2024/04/15 00:14:35;;;;;;;1.42;0.10;;;11.10;70.60;;;;;;5382631;26;20321;-78
2024/04/15 00:17:03;;;;;;;0.30;0.10;;;11.00;70.80;;;;;;5380861;26;20077;-77
2024/04/15 00:19:33;;;;;;;0.43;0.00;;;11.00;71.00;;;;;;5381026;26;20422;-78
2024/04/15 00:22:00;;;;;;;1.60;0.13;;;11.00;71.30;;;;;;5380630;26;19996;-78
2024/04/15 00:24:27;;;;;;;4.15;0.45;;;10.90;71.40;;;;;;5380557;26;20011;-77
2024/04/15 00:26:54;;;;;;;2.25;0.50;;;10.80;71.60;;;;;;5380771;26;20079;-78
2024/04/15 00:29:22;;;;;;;0.88;0.10;;;10.70;71.80;;;;;;5382401;26;20004;-77
2024/04/15 00:31:49;;;;;;;1.85;0.10;;;10.70;72.10;;;;;;5377379;26;20001;-78
2024/04/15 00:34:16;;;;;;;1.90;0.20;;;10.70;72.30;;;;;;5351556;26;20010;-78
2024/04/15 00:36:44;;;;;;;2.50;0.20;;;10.60;73.20;;;;;;5382872;26;20007;-78
2024/04/15 00:39:12;;;;;;;1.50;0.15;;;10.50;72.90;;;;;;5357075;26;20004;-78
2024/04/15 00:41:39;;;;;;;1.60;0.10;;;10.40;73.10;;;;;;5380677;26;20012;-78
2024/04/15 00:44:06;;;;;;;0.82;0.10;;;10.40;73.20;;;;;;5382238;26;20019;-78
2024/04/15 00:46:34;;;;;;;0.40;0.10;;;10.30;73.40;;;;;;5382516;26;20057;-78
2024/04/15 00:49:01;;;;;;;1.25;0.10;;;10.30;73.60;;;;;;5380784;26;20004;-78
2024/04/15 00:51:28;;;;;;;1.33;0.20;;;10.30;73.70;;;;;;5380791;26;19996;-77
2024/04/15 00:53:57;;;;;;;1.45;0.20;;;10.30;73.80;;;;;;5378399;26;20005;-78
2024/04/15 00:56:25;;;;;;;1.40;0.20;;;10.20;74.00;;;;;;5373918;26;20045;-78
2024/04/15 00:58:52;;;;;;;1.25;0.20;;;10.20;74.30;;;;;;5374942;26;20372;-78
2024/04/15 01:01:20;;;;;;;1.75;0.25;;;10.20;74.40;;;;;;5382233;26;20000;-77
2024/04/15 01:03:47;;;;;;;0.75;0.15;;;10.20;74.70;;;;;;5382417;26;20011;-78
2024/04/15 01:06:15;;;;;;;0.73;0.20;;;10.10;74.80;;;;;;5351805;26;20066;-78
2024/04/15 01:08:45;;;;;;;1.17;0.38;;;10.10;75.10;;;;;;5380394;26;20077;-78
2024/04/15 01:11:13;;;;;;;1.77;0.30;;;10.10;75.30;;;;;;5380224;26;20000;-78
2024/04/15 01:13:40;;;;;;;3.05;0.60;;;10.10;75.60;;;;;;5382071;26;20011;-78
2024/04/15 01:16:07;;;;;;;2.25;0.32;;;10.10;75.70;;;;;;5380302;26;20007;-79
2024/04/15 01:18:37;;;;;;;1.13;0.30;;;10.10;75.90;;;;;;5347351;26;20001;-79
2024/04/15 01:21:05;;;;;;;0.70;0.30;;;10.10;76.00;;;;;;5380644;26;20000;-78
2024/04/15 01:23:37;;;;;;;1.48;0.50;;;10.10;76.10;;;;;;5345065;26;20001;-78
2024/04/15 01:26:07;;;;;;;2.40;1.00;;;10.10;76.30;;;;;;5408896;26;20015;-78
2024/04/15 01:28:37;;;;;;;5.63;1.60;;;10.10;76.60;;;;;;5379869;26;20069;-77
2024/04/15 01:31:07;;;;;;;4.60;1.45;;;10.20;77.20;;;;;;5348148;26;20055;-78
2024/04/15 01:33:37;;;;;;;4.10;1.20;;;10.20;77.30;;;;;;5380069;26;20003;-78
2024/04/15 01:36:06;;;;;;;2.35;1.08;;;10.20;77.30;;;;;;5351543;26;20012;-78
2024/04/15 01:38:34;;;;;;;5.22;1.15;;;10.30;77.40;;;;;;5381706;26;20011;-78
2024/04/15 01:41:01;;;;;;;2.70;1.13;;;10.30;78.40;;;;;;5379650;26;20044;-78
2024/04/15 01:43:28;;;;;;;5.55;1.65;;;10.30;77.90;;;;;;5380035;26;20077;-78
2024/04/15 01:45:55;;;;;;;3.53;1.02;;;10.30;78.90;;;;;;5409155;26;20029;-77
2024/04/15 01:48:22;;;;;;;3.85;0.93;;;10.40;79.10;;;;;;5379638;26;20000;-78
2024/04/15 01:50:49;;;;;;;4.47;1.05;;;10.40;78.80;;;;;;5381279;26;20000;-78
2024/04/15 01:53:16;;;;;;;3.13;0.90;;;10.40;79.40;;;;;;5344975;26;20071;-78
2024/04/15 01:55:43;;;;;;;4.07;0.88;;;10.40;79.80;;;;;;5358070;26;20000;-78
2024/04/15 01:58:10;;;;;;;4.30;1.40;;;10.40;80.00;;;;;;5379490;26;19996;-78
2024/04/15 02:00:39;;;;;;;2.80;1.17;;;10.40;80.40;;;;;;5379548;26;20029;-79
2024/04/15 02:03:06;;;;;;;2.60;0.95;;;10.30;80.60;;;;;;5379513;26;20011;-78
2024/04/15 02:05:33;;;;;;;4.55;1.40;;;10.30;80.90;;;;;;5381213;26;20004;-78
2024/04/15 02:08:03;;;;;;;5.60;1.25;;;10.30;81.30;;;;;;5382628;26;20000;-78
2024/04/15 02:10:33;;;;;;;4.28;0.82;;;10.30;81.30;;;;;;5382805;26;20337;-78
2024/04/15 02:13:01;;;;;;;4.22;1.30;;;10.30;81.40;;;;;;5412283;26;20007;-78
2024/04/15 02:15:29;;;;;;;6.15;1.10;;;10.30;81.70;;;;;;5384649;26;20004;-78
2024/04/15 02:17:56;;;;;;;4.32;0.80;;;10.30;81.70;;;;;;5384267;26;20452;-77
2024/04/15 02:20:24;;;;;;;4.40;1.23;;;10.30;81.80;;;;;;5382712;26;20004;-78
2024/04/15 02:22:52;;;;;;;5.28;1.17;;;10.30;81.60;;;;;;5346424;26;19996;-78
2024/04/15 02:25:19;;;;;;;5.28;1.25;;;10.30;81.80;;;;;;5383255;26;20098;-78
2024/04/15 02:27:46;;;;;;;6.85;1.10;;;10.30;81.60;;;;;;5382596;26;20003;-77
2024/04/15 02:30:13;;;;;;;5.47;1.02;;;10.30;81.80;;;;;;5383886;26;20008;-78
2024/04/15 02:32:42;;;;;;;5.03;1.13;;;10.30;82.10;;;;;;5383948;26;20459;-77
2024/04/15 02:35:09;;;;;;;7.45;1.23;;;10.30;81.90;;;;;;5382374;26;20028;-78
2024/04/15 02:37:36;;;;;;;3.72;1.15;;;10.30;82.10;;;;;;5382196;26;20007;-78
2024/04/15 02:40:04;;;;;;;3.03;0.75;;;10.30;82.00;;;;;;5382219;26;20004;-78
2024/04/15 02:42:31;;;;;;;3.33;1.15;;;10.20;81.90;;;;;;5383916;26;20007;-77
2024/04/15 02:44:58;;;;;;;3.03;0.90;;;10.20;82.00;;;;;;5383870;26;20074;-78
2024/04/15 02:47:25;;;;;;;4.35;0.90;;;10.20;82.30;;;;;;5382055;26;19996;-77
2024/04/15 02:49:53;;;;;;;3.38;0.93;;;10.20;82.40;;;;;;5352811;26;20000;-77
2024/04/15 02:52:20;;;;;;;4.68;1.40;;;10.20;82.40;;;;;;5383762;26;20001;-77
2024/04/15 02:54:47;;;;;;;7.28;1.42;;;10.20;82.50;;;;;;5381969;26;20445;-77
2024/04/15 02:57:14;;;;;;;8.52;1.92;;;10.20;82.90;;;;;;5383722;26;19996;-79
2024/04/15 02:59:41;;;;;;;3.33;1.40;;;10.10;82.80;;;;;;5382167;26;20004;-76
2024/04/15 03:02:08;;;;;;;5.85;1.55;;;10.10;83.00;;;;;;5381811;26;20011;-78
2024/04/15 03:04:35;;;;;;;6.78;1.67;;;10.10;83.20;;;;;;5381964;26;20046;-78
2024/04/15 03:07:02;;;;;;;5.63;1.45;;;10.10;83.20;;;;;;5381711;26;20440;-77
2024/04/15 03:09:31;;;;;;;2.17;0.90;;;10.10;83.30;;;;;;5381493;26;20010;-77
2024/04/15 03:11:58;;;;;;;3.47;0.80;;;10.10;83.10;;;;;;5382093;26;19996;-77
2024/04/15 03:14:25;;;;;;;5.53;1.55;;;10.10;83.10;;;;;;5382147;26;20004;-77
2024/04/15 03:16:52;;;;;;;2.60;0.90;;;10.10;83.00;;;;;;5381638;26;20070;-78
2024/04/15 03:19:19;;;;;;;3.25;1.02;;;10.10;83.10;;;;;;5381473;26;20036;-77
2024/04/15 03:21:48;;;;;;;6.88;1.92;;;10.10;83.00;;;;;;5383420;26;20008;-78
2024/04/15 03:24:15;;;;;;;5.70;1.52;;;10.10;83.50;;;;;;5383300;26;20054;-78
2024/04/15 03:26:43;;;;;;;7.05;1.60;;;10.10;83.40;;;;;;5383074;26;20005;-77
2024/04/15 03:29:10;;;;;;;5.53;1.60;;;10.10;83.50;;;;;;5375491;26;20005;-78
2024/04/15 03:31:37;;;;;;;3.03;1.02;;;10.10;83.40;;;;;;5370964;26;20051;-78
2024/04/15 03:34:04;;;;;;;6.63;1.63;;;10.10;83.30;;;;;;5381478;26;20009;-77
2024/04/15 03:36:31;;;;;;;4.32;1.63;;;10.10;83.70;;;;;;5383214;26;20403;-77
2024/04/15 03:38:58;;;;;;;4.40;1.10;;;10.10;83.60;;;;;;5317695;26;20344;-78
2024/04/15 03:41:25;;;;;;;4.15;1.00;;;10.10;83.60;;;;;;5372768;26;20008;-77
2024/04/15 03:43:52;;;;;;;3.17;0.90;;;10.00;83.80;;;;;;5381308;26;20050;-77
2024/04/15 03:46:19;;;;;;;4.45;1.60;;;9.90;83.90;;;;;;5391366;26;19996;-77
2024/04/15 03:48:46;;;;;;;3.13;1.25;;;9.90;84.10;;;;;;5374709;26;20012;-77
2024/04/15 03:51:13;;;;;;;3.05;1.10;;;9.80;84.30;;;;;;5381804;26;20001;-78
2024/04/15 03:53:40;;;;;;;2.42;1.10;;;9.80;84.40;;;;;;5381473;26;20033;-78
2024/04/15 03:56:07;;;;;;;5.25;1.85;;;9.70;84.60;;;;;;5383247;26;20015;-78
2024/04/15 03:58:37;;;;;;;4.30;1.45;;;9.60;84.90;;;;;;5383023;26;20000;-78
2024/04/15 04:01:07;;;;;;;3.50;1.40;;;9.60;85.10;;;;;;5382887;26;20473;-78
2024/04/15 04:03:37;;;;;;;4.03;1.48;;;9.50;85.20;;;;;;5382769;26;20008;-77
2024/04/15 04:06:07;;;;;;;4.40;1.88;;;9.40;85.60;;;;;;5382917;26;20008;-78
2024/04/15 04:08:39;;;;;;;3.42;1.10;;;9.40;85.60;;;;;;5325909;26;20048;-78
2024/04/15 04:11:07;;;;;;;5.03;1.30;;;9.40;85.80;;;;;;5380154;26;20004;-76
2024/04/15 04:13:37;;;;;;;4.82;1.52;;;9.30;85.90;;;;;;5345846;26;20393;-77
2024/04/15 04:16:04;;;;;;;2.33;1.10;;;9.30;85.80;;;;;;5373985;26;20016;-77
2024/04/15 04:18:32;;;;;;;3.67;1.48;;;9.30;85.90;;;;;;5380903;26;20079;-77
2024/04/15 04:20:59;;;;;;;2.80;1.05;;;9.30;85.90;;;;;;5380823;26;19996;-77
2024/04/15 04:23:26;;;;;;;2.22;1.00;;;9.40;85.90;;;;;;5380874;26;20073;-77
2024/04/15 04:25:53;;;;;;;3.58;0.90;;;9.40;85.80;;;;;;5380872;26;20012;-77
2024/04/15 04:28:20;;;;;;;2.72;0.80;;;9.40;85.80;;;;;;5376212;26;20083;-77
2024/04/15 04:30:48;;;;;;;3.05;1.20;;;9.40;85.90;;;;;;5351074;26;20041;-77
2024/04/15 04:33:15;;;;;;;3.60;1.35;;;9.40;85.90;;;;;;5369309;26;20000;-77
2024/04/15 04:35:42;;;;;;;7.43;1.90;;;9.40;85.90;;;;;;5381125;26;20008;-78
2024/04/15 04:38:09;;;;;;;4.40;1.40;;;9.40;86.40;;;;;;5381126;26;20471;-78
2024/04/15 04:40:36;;;;;;;2.90;0.80;;;9.40;86.40;;;;;;5382356;26;20007;-78
2024/04/15 04:43:03;;;;;;;6.32;1.60;;;9.30;86.40;;;;;;5382451;26;20000;-78
2024/04/15 04:45:32;;;;;;;3.50;1.30;;;9.30;86.50;;;;;;5380589;26;20003;-78
2024/04/15 04:48:00;;;;;;;3.15;0.85;;;9.30;86.60;;;;;;5382392;26;20055;-78
2024/04/15 04:50:27;;;;;;;2.28;0.80;;;9.30;86.60;;;;;;5382488;26;19996;-78
2024/04/15 04:52:55;;;;;;;4.05;1.17;;;9.30;86.70;;;;;;5382226;26;20008;-76
2024/04/15 04:55:22;;;;;;;3.15;1.10;;;9.20;86.90;;;;;;5380300;26;20000;-77
2024/04/15 04:57:50;;;;;;;3.88;0.90;;;9.20;87.10;;;;;;5380507;26;20042;-77
2024/04/15 05:00:17;;;;;;;3.55;1.35;;;9.10;87.00;;;;;;5380144;26;20005;-78
2024/04/15 05:02:46;;;;;;;4.20;1.10;;;9.20;87.10;;;;;;5382120;26;20326;-78
2024/04/15 05:05:13;;;;;;;1.92;0.70;;;9.20;87.10;;;;;;5409596;26;20012;-78
2024/04/15 05:07:40;;;;;;;3.45;0.75;;;9.20;87.00;;;;;;5351340;26;20004;-78
2024/04/15 05:10:07;;;;;;;4.18;1.33;;;9.30;86.80;;;;;;5380573;26;20000;-78
2024/04/15 05:12:38;;;;;;;4.00;1.08;;;9.40;87.00;;;;;;5379877;26;20008;-77
2024/04/15 05:15:08;;;;;;;3.25;0.88;;;9.40;86.90;;;;;;5381106;26;20044;-78
2024/04/15 05:17:39;;;;;;;3.92;0.90;;;9.40;86.80;;;;;;5382156;26;20007;-78
2024/04/15 05:20:07;;;;;;;3.92;1.35;;;9.50;86.90;;;;;;5379569;26;20012;-78
2024/04/15 05:22:34;;;;;;;3.40;1.00;;;9.40;87.00;;;;;;5382020;26;20007;-78
2024/04/15 05:25:01;;;;;;;2.60;0.90;;;9.40;87.00;;;;;;5351123;26;20074;-78
2024/04/15 05:27:29;;;;;;;3.17;1.02;;;9.40;87.20;;;;;;5373850;26;20005;-78
2024/04/15 05:29:56;;;;;;;8.25;1.67;;;9.40;87.40;;;;;;5362540;26;20000;-78
2024/04/15 05:32:23;;;;;;;3.28;0.95;;;9.30;87.80;;;;;;5350772;26;20081;-78
2024/04/15 05:34:50;;;;;;;4.00;1.45;;;9.20;87.70;;;;;;5350997;26;20000;-78
2024/04/15 05:37:17;;;;;;;4.80;1.85;;;9.20;87.80;;;;;;5379736;26;20023;-76
2024/04/15 05:39:44;;;;;;;5.93;1.40;;;9.20;88.00;;;;;;5381143;26;20008;-78
2024/04/15 05:42:14;;;;;;;5.43;2.00;;;9.30;88.40;;;;;;5382458;26;20039;-78
2024/04/15 05:44:41;;;;;;;4.53;1.40;;;9.40;88.60;;;;;;5412426;26;20000;-78
2024/04/15 05:47:08;;;;;;;3.25;1.08;;;9.40;88.10;;;;;;5353899;26;20390;-78
2024/04/15 05:49:38;;;;;;;5.20;0.90;;;9.50;87.80;;;;;;5378646;26;20001;-77
2024/04/15 05:52:08;;;;;;;4.28;1.48;;;9.60;87.70;;;;;;5382870;26;20392;-77
2024/04/15 05:54:35;;;;;;;5.90;1.33;;;9.50;87.80;;;;;;5382974;26;20000;-77
2024/04/15 05:57:08;;;;;;;6.07;1.90;;;9.50;88.30;;;;;;5382993;26;20080;-78
2024/04/15 05:59:38;;;;;;;3.95;1.02;;;9.40;88.50;;;;;;5383057;26;20016;-78
2024/04/15 06:02:05;;;;;;;4.85;1.40;;;9.50;88.50;;;;;;5383002;26;20035;-78
2024/04/15 06:04:35;;;;;;;6.63;1.60;;;9.50;88.60;;;;;;5382653;26;20004;-78
2024/04/15 06:07:03;;;;;;;6.50;1.65;;;9.60;88.90;;;;;;5382404;26;20001;-78
2024/04/15 06:09:30;;;;;;;4.20;1.73;;;9.60;88.80;;;;;;5384125;26;20012;-78
2024/04/15 06:11:58;;;;;;;4.70;1.38;;;9.70;88.80;;;;;;5382476;26;20032;-78
2024/04/15 06:14:25;;;;;;;6.22;2.28;;;9.70;88.60;;;;;;5382405;26;20073;-78
2024/04/15 06:16:52;;;;;;;5.32;1.58;;;9.70;88.60;;;;;;5353741;26;20061;-78
2024/04/15 06:19:20;;;;;;;4.70;1.10;;;9.70;88.70;;;;;;5382739;26;20554;-78
2024/04/15 06:21:47;;;;;;;4.70;1.00;;;9.70;88.80;;;;;;5384356;26;20445;-78
2024/04/15 06:24:14;;;;;;;2.72;1.23;;;9.70;88.90;;;;;;5324868;26;20005;-78
2024/04/15 06:26:41;;;;;;;6.47;1.45;;;9.70;88.80;;;;;;5382372;26;19996;-78
2024/04/15 06:29:08;;;;;;;8.07;2.03;;;9.70;89.00;;;;;;5382448;26;20008;-78
2024/04/15 06:31:36;;;;;;;10.50;1.90;;;9.80;89.10;;;;;;5373069;26;20333;-78
2024/04/15 06:34:03;;;;;;;9.68;2.53;;;9.80;89.30;;;;;;5384001;26;20000;-78
2024/04/15 06:36:31;;;;;;;5.03;1.60;;;9.90;89.70;;;;;;5370310;26;20011;-78
2024/04/15 06:38:58;;;;;;;5.57;1.65;;;9.90;89.40;;;;;;5382242;26;20000;-78
2024/04/15 06:41:25;;;;;;;7.20;1.50;;;10.00;89.30;;;;;;5384033;26;20000;-79
2024/04/15 06:43:52;;;;;;;6.50;1.85;;;10.10;89.10;;;;;;5382405;26;20467;-84
2024/04/15 06:46:20;;;;;;;8.32;2.25;;;10.10;89.00;;;;;;5376617;26;19997;-84
2024/04/15 06:48:47;;;;;;;5.93;2.00;;;10.30;88.80;;;;;;5374326;26;20032;-84
2024/04/15 06:51:14;;;;;;;4.97;1.92;;;10.40;88.70;;;;;;5383019;26;20464;-89
2024/04/15 06:53:41;;;;;;;6.88;1.75;;;10.40;88.50;;;;;;5382438;26;20020;-86
2024/04/15 06:56:12;;;;;;;6.75;1.40;;;10.60;88.50;;;;;;5353370;26;20449;-86
2024/04/15 06:58:42;;;;;;;6.65;1.80;;;10.50;88.40;;;;;;5385286;26;20436;-90
2024/04/15 07:01:13;;;;;;;6.53;2.05;;;10.60;88.40;;;;;;5383807;26;19997;-88
2024/04/15 07:03:40;;;;;;;5.97;1.90;;;10.60;88.30;;;;;;5353661;26;20003;-78
2024/04/15 07:06:09;;;;;;;8.90;2.13;;;10.70;88.20;;;;;;5382073;26;19996;-79
2024/04/15 07:08:37;;;;;;;12.00;3.40;;;10.70;88.20;;;;;;5352735;26;20027;-82
2024/04/15 07:11:04;;;;;;;8.93;2.60;;;10.70;88.10;;;;;;5381404;26;20349;-80
2024/04/15 07:13:34;;;;;;;11.30;2.75;;;10.80;88.00;;;;;;5381411;26;20008;-79
2024/04/15 07:16:04;;;;;;;7.68;1.92;;;10.80;87.50;;;;;;5382616;26;20089;-79
2024/04/15 07:18:31;;;;;;;10.20;2.28;;;10.90;87.30;;;;;;5352471;26;20077;-79
2024/04/15 07:20:58;;;;;;;8.25;2.42;;;11.00;87.00;;;;;;5410321;26;20008;-79
2024/04/15 07:23:25;;;;;;;8.32;2.65;;;11.10;86.50;;;;;;5352621;26;20008;-79
2024/04/15 07:25:59;;;;;;;5.70;1.63;;;11.10;86.20;;;;;;5381836;26;20328;-79
2024/04/15 07:28:27;;;;;;;5.43;1.77;;;11.20;86.10;;;;;;5381132;26;20000;-80
2024/04/15 07:31:00;;;;;;;4.22;1.63;;;11.30;85.60;;;;;;5352523;26;20011;-79
2024/04/15 07:33:27;;;;;;;8.68;1.55;;;11.50;85.20;;;;;;5381280;26;20008;-80
2024/04/15 07:36:02;;;;;;;3.20;1.02;;;11.60;85.00;;;;;;5381905;26;20046;-80
2024/04/15 07:38:29;;;;;;;4.75;1.45;;;11.90;85.20;;;;;;5353366;26;19996;-79
2024/04/15 07:40:59;;;;;;;4.90;1.35;;;12.10;84.00;;;;;;5383392;26;20111;-80
2024/04/15 07:43:29;;;;;;;6.60;1.67;;;12.20;83.40;;;;;;5381434;26;19996;-80
2024/04/15 07:45:56;;;;;;;4.97;1.25;;;12.30;83.20;;;;;;5381613;26;20004;-80
2024/04/15 07:48:24;;;;;;;5.43;1.52;;;12.40;82.50;;;;;;5381701;26;19996;-78
2024/04/15 07:50:53;;;;;;;5.50;1.40;;;12.30;82.40;;;;;;5381260;26;20464;-78
2024/04/15 07:53:20;;;;;;;4.40;1.27;;;12.30;82.30;;;;;;5381150;26;20402;-77
2024/04/15 07:55:48;;;;;;;8.57;1.77;;;12.30;82.30;;;;;;5380868;26;20000;-78
2024/04/15 07:58:15;;;;;;;5.90;1.65;;;12.30;81.70;;;;;;5352227;26;20051;-79
2024/04/15 08:00:43;;;;;;;5.70;1.50;;;12.20;81.30;;;;;;5381247;26;20015;-79
2024/04/15 08:03:11;;;;;;;11.23;2.45;;;12.20;81.60;;;;;;5382794;26;20010;-79
2024/04/15 08:05:39;;;;;;;10.70;2.03;;;12.20;81.30;;;;;;5379939;26;20340;-79
2024/04/15 08:08:10;;;;;;;8.43;2.72;;;12.10;80.90;;;;;;5357804;26;20004;-77
2024/04/15 08:10:37;;;;;;;9.27;1.80;;;12.10;80.70;;;;;;5380855;26;20336;-79
2024/04/15 08:13:04;;;;;;;6.30;1.17;;;12.10;80.80;;;;;;5381027;26;20407;-79
2024/04/15 08:15:33;;;;;;;6.20;1.50;;;12.20;80.90;;;;;;5381454;26;20015;-79
2024/04/15 08:18:01;;;;;;;6.10;1.48;;;12.40;80.30;;;;;;5381088;26;20441;-79
2024/04/15 08:20:28;;;;;;;9.63;1.98;;;12.40;79.90;;;;;;5410861;26;20014;-78
2024/04/15 08:22:55;;;;;;;5.25;2.30;;;12.50;79.50;;;;;;5351952;26;20007;-79
2024/04/15 08:25:23;;;;;;;5.63;1.60;;;12.60;78.80;;;;;;5380689;26;20004;-78
2024/04/15 08:27:51;;;;;;;6.03;1.88;;;12.60;78.40;;;;;;5382520;26;20448;-79
2024/04/15 08:30:19;;;;;;;3.92;1.20;;;12.70;78.00;;;;;;5380528;26;20425;-78
2024/04/15 08:32:47;;;;;;;4.43;1.75;;;12.70;77.90;;;;;;5380595;26;19996;-78
2024/04/15 08:35:14;;;;;;;8.18;1.88;;;12.80;77.80;;;;;;5352369;26;20073;-78
2024/04/15 08:37:41;;;;;;;6.72;1.77;;;12.90;77.20;;;;;;5351682;26;20047;-78
2024/04/15 08:40:10;;;;;;;4.75;1.60;;;12.90;77.00;;;;;;5380710;26;20028;-78
2024/04/15 08:42:52;;;;;;;5.03;2.15;;;12.90;77.20;;;;;;5345703;26;20041;-79
2024/04/15 08:45:23;;;;;;;6.25;2.17;;;13.10;76.40;;;;;;5403733;26;20008;-79
2024/04/15 08:47:52;;;;;;;6.15;2.03;;;13.00;76.20;;;;;;5380301;26;20008;-79
2024/04/15 08:50:21;;;;;;;4.68;2.05;;;13.00;75.90;;;;;;5382026;26;20014;-78
2024/04/15 08:52:55;;;;;;;7.75;3.75;;;13.00;75.90;;;;;;5346103;26;20004;-79
2024/04/15 08:55:26;;;;;;;6.22;2.17;;;13.00;75.00;;;;;;5345673;26;19997;-79
2024/04/15 08:57:54;;;;;;;6.63;2.47;;;13.00;75.40;;;;;;5347206;26;20001;-79
2024/04/15 09:00:24;;;;;;;5.95;2.47;;;13.10;74.70;;;;;;5352359;26;20019;-85
2024/04/15 09:02:53;;;;;;;4.85;1.80;;;13.10;73.70;;;;;;5380650;26;20006;-86
2024/04/15 09:05:25;;;;;;;4.90;1.38;;;13.20;74.00;;;;;;5411228;26;19996;-91
2024/04/15 09:07:53;;;;;;;5.13;1.50;;;13.40;74.10;;;;;;5380860;26;20041;-85
2024/04/15 09:10:20;;;;;;;4.93;1.30;;;13.50;74.00;;;;;;5409638;26;20004;-85
2024/04/15 09:12:48;;;;;;;4.75;1.20;;;13.60;74.00;;;;;;5379863;26;20019;-84
2024/04/15 09:15:20;;;;;;;5.45;1.50;;;13.70;73.60;;;;;;5378986;26;20008;-84
2024/04/15 09:17:49;;;;;;;6.45;1.55;;;13.70;73.00;;;;;;5381932;26;20004;-84
2024/04/15 09:20:19;;;;;;;6.53;1.92;;;13.60;72.50;;;;;;5380583;26;20010;-85
2024/04/15 09:23:09;;;;;;;5.32;1.45;;;13.60;72.20;;;;;;5382430;26;20073;-85
2024/04/15 09:25:36;;;;;;;4.13;1.00;;;13.70;71.50;;;;;;5380033;26;20009;-88
2024/04/15 09:28:14;;;;;;;6.82;1.20;;;13.80;70.60;;;;;;5379987;26;20367;-86
2024/04/15 09:30:41;;;;;;;4.38;1.40;;;14.00;70.20;;;;;;5379913;26;19996;-84
2024/04/15 09:33:11;;;;;;;4.47;1.10;;;14.00;69.80;;;;;;5379816;26;20042;-80
2024/04/15 09:35:39;;;;;;;3.13;1.00;;;14.20;70.20;;;;;;5381974;26;20008;-89
2024/04/15 09:38:12;;;;;;;4.10;1.10;;;14.30;69.60;;;;;;5381373;26;20070;-92
2024/04/15 09:41:00;;;;;;;5.80;1.20;;;14.40;68.90;;;;;;5409890;26;20313;-86
2024/04/15 09:43:59;;;;;;;3.75;1.05;;;14.30;68.90;;;;;;5380135;26;20012;-89
2024/04/15 09:46:45;;;;;;;5.43;0.75;;;14.20;69.20;;;;;;5379389;26;20004;-85
2024/04/15 09:49:13;;;;;;;6.72;0.93;;;14.00;69.30;;;;;;5379313;26;20333;-83
2024/04/15 09:51:41;;;;;;;2.75;0.80;;;13.80;69.50;;;;;;5379391;26;20012;-84
2024/04/15 09:54:13;;;;;;;2.22;0.43;;;13.80;69.80;;;;;;5379432;26;20000;-83
2024/04/15 09:56:46;;;;;;;1.77;0.50;;;13.70;70.00;;;;;;5351922;26;20032;-86
2024/04/15 09:59:32;;;;;;;3.33;0.73;;;13.80;70.10;;;;;;5408965;26;20000;-86
2024/04/15 10:02:01;;;;;;;2.88;0.90;;;13.90;69.60;;;;;;5399743;26;20000;-83
2024/04/15 10:04:33;;;;;;;2.22;0.57;;;13.90;69.50;;;;;;5376082;26;20020;-83
2024/04/15 10:07:03;;;;;;;2.08;0.50;;;13.90;69.80;;;;;;5380692;26;20012;-82
2024/04/15 10:09:32;;;;;;;3.40;0.63;;;13.90;69.50;;;;;;5350068;26;20677;-83
2024/04/15 10:12:00;;;;;;;2.40;0.60;;;13.90;69.00;;;;;;5379313;26;20015;-83
2024/04/15 10:14:28;;;;;;;3.00;0.75;;;13.80;69.00;;;;;;5320618;26;20001;-80
2024/04/15 10:16:55;;;;;;;9.85;1.73;;;13.70;69.30;;;;;;5350611;26;20000;-90
2024/04/15 10:19:32;;;;;;;2.13;0.50;;;13.60;68.50;;;;;;5379431;26;20019;-85
2024/04/15 10:22:00;;;;;;;3.38;0.57;;;13.50;68.80;;;;;;5378870;26;20472;-83
2024/04/15 10:24:28;;;;;;;6.68;1.02;;;13.40;69.10;;;;;;5379114;26;20004;-86
2024/04/15 10:26:56;;;;;;;2.22;0.70;;;13.30;69.60;;;;;;5378862;26;20000;-84
2024/04/15 10:29:26;;;;;;;2.15;0.60;;;13.30;69.30;;;;;;5353245;26;20390;-89
2024/04/15 10:31:57;;;;;;;5.45;0.98;;;13.20;69.40;;;;;;5382190;26;19996;-89
2024/04/15 10:34:26;;;;;;;3.53;1.00;;;13.10;69.30;;;;;;5377171;26;20005;-86
2024/04/15 10:36:57;;;;;;;3.08;0.95;;;12.90;69.80;;;;;;5319218;26;20442;-87
2024/04/15 10:39:24;;;;;;;4.55;0.57;;;12.70;71.10;;;;;;5319257;26;20007;-87
2024/04/15 10:41:55;;;;;;;6.10;1.00;;;12.50;72.30;;;;;;5341732;26;20005;-84
2024/04/15 10:44:22;;;;;;;2.97;0.55;;;12.40;74.20;;;;;;5354274;26;20004;-82
2024/04/15 10:46:49;;;;;;;5.45;0.90;;;12.30;74.90;;;;;;5382137;26;20013;-88
2024/04/15 10:49:17;;;;;;;1.98;0.50;;;12.20;75.20;;;;;;5382273;26;20332;-86
2024/04/15 10:51:47;;;;;;;3.15;0.40;;;12.30;75.10;;;;;;5381694;26;20008;-87
2024/04/15 10:54:14;;;;;;;1.52;0.40;;;12.30;75.50;;;;;;5382775;26;20012;-85
2024/04/15 10:56:42;;;;;;;1.90;0.40;;;12.20;75.70;;;;;;5353325;26;20004;-85
2024/04/15 10:59:15;;;;;;;4.50;0.80;;;12.20;76.10;;;;;;5382002;26;20007;-87
2024/04/15 11:01:44;;;;;;;3.30;0.55;;;12.10;76.80;;;;;;5383864;26;20000;-87
2024/04/15 11:04:15;;;;;;;4.32;0.68;;;12.00;77.80;;;;;;5382875;26;20341;-89
2024/04/15 11:06:47;;;;;;;4.07;0.57;;;11.80;78.40;;;;;;5353513;26;20004;-87
2024/04/15 11:09:15;;;;;;;1.42;0.30;;;11.70;79.00;;;;;;5379784;26;20005;-88
2024/04/15 11:11:54;;;;;;;;;;;;;;;;;;;;;
2024/04/15 11:14:23;;;;;;;3.85;0.98;;;11.40;80.10;;;;;;5383384;26;20001;-90
2024/04/15 11:16:51;;;;;;;2.65;0.40;;;11.40;80.60;;;;;;5383268;26;20004;-89
2024/04/15 11:19:20;;;;;;;4.97;0.60;;;11.30;81.00;;;;;;5354470;26;20011;-90
2024/04/15 11:21:47;;;;;;;3.08;0.60;;;11.20;82.40;;;;;;5383480;26;20013;-89
2024/04/15 11:24:16;;;;;;;4.18;0.80;;;11.10;83.30;;;;;;5383298;26;20008;-93
2024/04/15 11:26:44;;;;;;;2.40;0.30;;;11.00;83.90;;;;;;5382903;26;20032;-91
2024/04/15 11:29:13;;;;;;;2.60;0.60;;;11.00;83.90;;;;;;5412903;26;20332;-92
2024/04/15 11:31:41;;;;;;;3.70;0.77;;;11.00;83.90;;;;;;5383337;26;20023;-89
2024/04/15 11:34:09;;;;;;;2.30;0.50;;;11.00;84.70;;;;;;5383798;26;20006;-92
2024/04/15 11:36:42;;;;;;;2.58;0.57;;;10.90;85.90;;;;;;5383748;26;20449;-90
2024/04/15 11:39:13;;;;;;;2.42;0.55;;;10.80;86.30;;;;;;5363278;26;20005;-91
2024/04/15 11:41:41;;;;;;;3.50;0.70;;;10.60;87.10;;;;;;5381920;26;20004;-89
2024/04/15 11:44:09;;;;;;;4.80;0.80;;;10.50;87.80;;;;;;5384586;26;20008;-91
2024/04/15 11:46:42;;;;;;;2.53;0.63;;;10.50;88.50;;;;;;5354499;26;20011;-94
2024/04/15 11:49:10;;;;;;;4.63;0.68;;;10.50;89.00;;;;;;5384426;26;20071;-92
2024/04/15 11:51:46;;;;;;;2.45;0.45;;;10.50;89.40;;;;;;5347080;26;20070;-85
2024/04/15 11:54:14;;;;;;;3.65;0.60;;;10.60;90.00;;;;;;5378671;26;20006;-85
2024/04/15 11:56:41;;;;;;;2.28;0.60;;;10.60;90.20;;;;;;5381399;26;20000;-84
2024/04/15 11:59:09;;;;;;;5.80;0.70;;;10.50;90.40;;;;;;5381794;26;20000;-83
2024/04/15 12:01:36;;;;;;;5.40;0.88;;;10.40;91.10;;;;;;5381847;26;20077;-82
2024/04/15 12:04:03;;;;;;;2.47;0.43;;;10.20;91.40;;;;;;5352822;26;20000;-82
2024/04/15 12:06:31;;;;;;;4.53;0.88;;;10.10;91.70;;;;;;5382209;26;20000;-83
2024/04/15 12:08:58;;;;;;;3.85;0.50;;;10.10;92.20;;;;;;5381971;26;19996;-88
2024/04/15 12:11:26;;;;;;;4.80;0.52;;;10.10;92.50;;;;;;5353061;26;20344;-88
2024/04/15 12:13:53;;;;;;;1.88;0.40;;;10.10;92.40;;;;;;5411136;26;20000;-86
2024/04/15 12:16:20;;;;;;;4.10;0.50;;;10.20;92.50;;;;;;5352772;26;20001;-88
2024/04/15 12:18:47;;;;;;;2.78;0.68;;;10.30;92.60;;;;;;5375683;26;20380;-89
2024/04/15 12:21:15;;;;;;;2.10;0.40;;;10.40;92.50;;;;;;5319589;26;20333;-89
2024/04/15 12:23:42;;;;;;;1.80;0.50;;;10.50;92.70;;;;;;5352661;26;20004;-90
2024/04/15 12:26:09;;;;;;;2.08;0.57;;;10.80;92.90;;;;;;5381967;26;20524;-89
2024/04/15 12:28:46;;;;;;;3.05;0.60;;;11.20;92.60;;;;;;5381388;26;20011;-89
2024/04/15 12:31:55;;;;;;;4.13;0.88;;;11.60;92.40;;;;;;5409702;26;20475;-86
2024/04/15 12:34:35;;;;;;;3.97;1.20;;;11.80;92.00;;;;;;5374944;26;20008;-84
2024/04/15 12:37:06;;;;;;;3.55;0.70;;;11.80;92.00;;;;;;5381770;26;20000;-86
2024/04/15 12:39:33;;;;;;;6.25;1.60;;;11.70;91.90;;;;;;5410911;26;20432;-86
2024/04/15 12:42:00;;;;;;;4.65;1.10;;;11.70;91.90;;;;;;5352166;26;20036;-84
2024/04/15 12:44:27;;;;;;;5.55;0.68;;;11.60;92.00;;;;;;5352209;26;20007;-89
2024/04/15 12:46:55;;;;;;;2.35;0.85;;;11.40;92.30;;;;;;5382166;26;20005;-90
2024/04/15 12:49:40;;;;;;;1.23;0.43;;;11.40;92.30;;;;;;5382510;26;19996;-88
2024/04/15 12:52:07;;;;;;;2.55;0.60;;;11.40;92.60;;;;;;5384666;26;20010;-87
2024/04/15 12:54:35;;;;;;;3.30;1.10;;;11.30;93.10;;;;;;5380977;26;20004;-84
2024/04/15 12:57:17;;;;;;;3.35;0.57;;;11.10;93.30;;;;;;5383621;26;20008;-89
2024/04/15 12:59:45;;;;;;;4.32;0.85;;;10.90;93.60;;;;;;5338420;26;20459;-87